createdAt,value
2022-09-28T00:01:08.138Z,44.53
2022-09-28T00:03:35.639Z,44.44
2022-09-28T00:06:07.481Z,44.53
2022-09-28T00:08:35.373Z,44.48
2022-09-28T00:11:03.840Z,44.45
2022-09-28T00:13:31.719Z,44.68
2022-09-28T00:16:01.496Z,44.51
2022-09-28T00:18:28.428Z,44.40
2022-09-28T00:21:15.148Z,44.41
2022-09-28T00:24:00.670Z,44.43
2022-09-28T00:26:28.669Z,44.44
2022-09-28T00:28:58.714Z,44.71
2022-09-28T00:31:28.095Z,44.52
2022-09-28T00:33:56.819Z,44.36
2022-09-28T00:36:24.663Z,44.36
2022-09-28T00:38:52.275Z,44.29
2022-09-28T00:41:18.779Z,44.29
2022-09-28T00:43:45.339Z,44.29
2022-09-28T00:46:35.552Z,44.19
2022-09-28T00:49:09.188Z,44.13
2022-09-28T00:51:37.182Z,44.22
2022-09-28T00:54:09.492Z,44.31
2022-09-28T00:56:40.545Z,44.28
2022-09-28T00:59:08.795Z,44.26
2022-09-28T01:01:36.051Z,44.26
2022-09-28T01:04:04.123Z,44.20
2022-09-28T01:06:33.787Z,44.36
2022-09-28T01:09:04.296Z,44.31
2022-09-28T01:11:31.982Z,44.16
2022-09-28T01:13:59.568Z,44.10
2022-09-28T01:16:32.310Z,44.17
2022-09-28T01:19:12.721Z,44.20
2022-09-28T01:24:35.722Z,44.31
2022-09-28T01:27:11.554Z,44.08
2022-09-28T01:33:01.451Z,44.07
2022-09-28T01:35:41.104Z,44.15
2022-09-28T01:38:14.684Z,44.07
2022-09-28T01:40:42.011Z,44.17
2022-09-28T01:43:16.917Z,44.21
2022-09-28T01:45:55.298Z,44.24
2022-09-28T01:50:58.009Z,44.03
2022-09-28T01:53:39.091Z,44.12
2022-09-28T01:56:12.331Z,44.04
2022-09-28T01:58:51.461Z,44.01
2022-09-28T02:01:26.821Z,43.93
2022-09-28T02:04:07.152Z,44.13
2022-09-28T02:06:42.029Z,44.04
2022-09-28T02:09:13.833Z,44.03
2022-09-28T02:11:45.313Z,44.05
2022-09-28T02:14:17.136Z,44.08
2022-09-28T02:16:46.510Z,44.03
2022-09-28T02:19:15.864Z,43.91
2022-09-28T02:21:49.523Z,44.00
2022-09-28T02:24:22.892Z,43.99
2022-09-28T02:26:51.864Z,43.93
2022-09-28T02:29:18.611Z,43.87
2022-09-28T02:31:45.297Z,43.98
2022-09-28T02:36:51.816Z,43.85
2022-09-28T02:39:19.113Z,43.89
2022-09-28T02:41:55.146Z,43.88
2022-09-28T02:44:30.785Z,43.91
2022-09-28T02:47:39.075Z,43.92
2022-09-28T02:50:43.973Z,43.84
2022-09-28T02:53:40.383Z,43.86
2022-09-28T02:56:15.951Z,43.79
2022-09-28T02:58:57.655Z,43.84
2022-09-28T03:01:50.441Z,43.84
2022-09-28T03:04:35.047Z,43.90
2022-09-28T03:07:09.497Z,43.83
2022-09-28T03:10:14.500Z,43.70
2022-09-28T03:12:43.397Z,43.84
2022-09-28T03:15:19.105Z,43.87
2022-09-28T03:17:45.990Z,43.93
2022-09-28T03:20:12.846Z,43.88
2022-09-28T03:22:39.645Z,43.76
2022-09-28T03:25:07.898Z,43.93
2022-09-28T03:27:34.773Z,43.85
2022-09-28T03:30:01.553Z,43.83
2022-09-28T03:32:28.069Z,43.74
2022-09-28T03:34:54.514Z,43.66
2022-09-28T03:37:20.993Z,43.83
2022-09-28T03:39:47.484Z,43.83
2022-09-28T03:42:13.922Z,43.82
2022-09-28T03:44:40.469Z,43.79
2022-09-28T03:47:08.691Z,43.72
2022-09-28T03:49:35.339Z,43.81
2022-09-28T03:52:02.533Z,43.85
2022-09-28T03:54:29.218Z,43.75
2022-09-28T03:56:55.865Z,43.82
2022-09-28T03:59:22.341Z,43.85
2022-09-28T04:01:50.280Z,43.82
2022-09-28T04:04:16.937Z,43.95
2022-09-28T04:06:43.769Z,43.92
2022-09-28T04:09:10.998Z,43.99
2022-09-28T04:11:53.133Z,44.12
2022-09-28T04:14:24.721Z,44.09
2022-09-28T04:16:54.459Z,43.99
2022-09-28T04:19:25.323Z,44.17
2022-09-28T04:21:51.928Z,44.13
2022-09-28T04:24:18.758Z,44.16
2022-09-28T04:26:45.426Z,44.24
2022-09-28T04:29:19.253Z,44.26
2022-09-28T04:31:49.845Z,44.21
2022-09-28T04:34:21.701Z,44.25
2022-09-28T04:36:48.994Z,44.39
2022-09-28T04:39:17.003Z,44.25
2022-09-28T04:41:43.766Z,44.37
2022-09-28T04:44:10.329Z,44.49
2022-09-28T04:46:36.826Z,44.43
2022-09-28T04:49:03.570Z,44.45
2022-09-28T04:51:33.428Z,44.46
2022-09-28T04:53:59.952Z,44.47
2022-09-28T04:56:26.498Z,44.41
2022-09-28T04:58:53.103Z,44.55
2022-09-28T05:01:23.618Z,44.57
2022-09-28T05:03:51.153Z,44.55
2022-09-28T05:06:17.970Z,44.71
2022-09-28T05:08:46.886Z,44.57
2022-09-28T05:11:14.643Z,44.48
2022-09-28T05:13:43.776Z,44.53
2022-09-28T05:16:11.037Z,44.67
2022-09-28T05:18:38.000Z,44.53
2022-09-28T05:21:09.313Z,44.77
2022-09-28T05:23:35.788Z,44.67
2022-09-28T05:26:03.032Z,44.79
2022-09-28T05:28:32.054Z,44.61
2022-09-28T05:31:03.260Z,44.64
2022-09-28T05:33:31.265Z,44.67
2022-09-28T05:36:01.285Z,44.63
2022-09-28T05:38:28.454Z,44.60
2022-09-28T05:40:54.984Z,44.66
2022-09-28T05:43:21.841Z,44.55
2022-09-28T05:45:52.821Z,44.63
2022-09-28T05:48:21.850Z,44.53
2022-09-28T05:50:52.536Z,44.65
2022-09-28T05:53:20.141Z,44.61
2022-09-28T05:55:46.717Z,44.59
2022-09-28T05:58:13.231Z,44.53
2022-09-28T06:00:40.361Z,44.49
2022-09-28T06:03:11.003Z,44.47
2022-09-28T06:05:39.360Z,44.55
2022-09-28T06:08:08.359Z,44.58
2022-09-28T06:10:35.000Z,44.50
2022-09-28T06:13:02.139Z,44.42
2022-09-28T06:15:30.702Z,44.35
2022-09-28T06:18:02.174Z,44.56
2022-09-28T06:20:31.161Z,44.44
2022-09-28T06:22:57.649Z,44.38
2022-09-28T06:25:27.586Z,44.45
2022-09-28T06:27:58.976Z,44.44
2022-09-28T06:30:27.391Z,44.40
2022-09-28T06:32:55.970Z,44.32
2022-09-28T06:35:25.365Z,44.42
2022-09-28T06:37:52.838Z,44.34
2022-09-28T06:40:20.697Z,44.34
2022-09-28T06:43:03.472Z,44.34
2022-09-28T06:45:30.812Z,44.25
2022-09-28T06:47:59.781Z,44.41
2022-09-28T06:50:28.112Z,44.20
2022-09-28T06:52:55.388Z,44.22
2022-09-28T06:55:22.243Z,44.14
2022-09-28T06:57:58.078Z,44.52
2022-09-28T07:00:25.070Z,44.24
2022-09-28T07:02:51.520Z,44.28
2022-09-28T07:05:19.256Z,44.24
2022-09-28T07:07:46.194Z,44.16
2022-09-28T07:10:12.878Z,44.14
2022-09-28T07:12:40.556Z,44.17
2022-09-28T07:15:07.620Z,44.36
2022-09-28T07:17:41.548Z,44.31
2022-09-28T07:20:19.589Z,44.30
2022-09-28T07:22:48.335Z,44.24
2022-09-28T07:25:14.786Z,44.31
2022-09-28T07:27:41.261Z,44.32
2022-09-28T07:30:08.224Z,44.30
2022-09-28T07:32:37.315Z,44.39
2022-09-28T07:35:10.748Z,44.44
2022-09-28T07:37:37.536Z,44.43
2022-09-28T07:40:24.386Z,44.44
2022-09-28T07:42:51.023Z,44.54
2022-09-28T07:45:17.890Z,44.43
2022-09-28T07:47:45.823Z,44.45
2022-09-28T07:50:12.820Z,44.47
2022-09-28T07:52:39.310Z,44.62
2022-09-28T07:55:07.360Z,44.59
2022-09-28T07:57:34.868Z,44.52
2022-09-28T08:00:02.326Z,44.74
2022-09-28T08:02:28.891Z,44.68
2022-09-28T08:04:56.341Z,44.77
2022-09-28T08:07:24.240Z,44.77
2022-09-28T08:09:51.323Z,44.59
2022-09-28T08:12:19.626Z,44.66
2022-09-28T08:14:47.176Z,44.69
2022-09-28T08:17:13.888Z,44.82
2022-09-28T08:19:59.110Z,44.74
2022-09-28T08:22:25.683Z,44.82
2022-09-28T08:24:52.145Z,44.82
2022-09-28T08:27:18.598Z,44.83
2022-09-28T08:29:45.190Z,44.79
2022-09-28T08:32:11.716Z,44.88
2022-09-28T08:34:40.413Z,44.79
2022-09-28T08:37:12.532Z,44.83
2022-09-28T08:39:39.243Z,44.86
2022-09-28T08:42:16.858Z,44.90
2022-09-28T08:44:50.098Z,44.78
2022-09-28T08:47:39.037Z,44.95
2022-09-28T08:50:13.838Z,44.88
2022-09-28T08:52:40.605Z,44.94
2022-09-28T08:55:19.107Z,44.94
2022-09-28T08:57:56.090Z,44.88
2022-09-28T09:00:38.808Z,44.96
2022-09-28T09:03:15.095Z,44.94
2022-09-28T09:06:07.734Z,44.99
2022-09-28T09:08:40.223Z,44.90
2022-09-28T09:11:27.496Z,44.92
2022-09-28T09:14:27.708Z,45.01
2022-09-28T09:17:03.087Z,44.96
2022-09-28T09:19:35.585Z,44.99
2022-09-28T09:22:16.752Z,45.01
2022-09-28T09:24:48.423Z,45.09
2022-09-28T09:27:32.786Z,45.01
2022-09-28T09:30:19.370Z,45.13
2022-09-28T09:33:10.387Z,45.02
2022-09-28T09:36:22.384Z,44.98
2022-09-28T09:39:07.303Z,45.07
2022-09-28T09:42:06.082Z,45.09
2022-09-28T09:44:52.473Z,45.08
2022-09-28T09:47:37.963Z,45.07
2022-09-28T09:50:42.672Z,45.01
2022-09-28T09:53:25.332Z,46.42
2022-09-28T09:55:57.340Z,48.53
2022-09-28T09:58:34.064Z,48.68
2022-09-28T10:01:12.540Z,48.21
2022-09-28T10:03:46.164Z,48.34
2022-09-28T10:06:19.466Z,50.25
2022-09-28T10:08:55.948Z,51.80
2022-09-28T10:11:31.425Z,51.89
2022-09-28T10:13:58.467Z,51.64
2022-09-28T10:16:25.165Z,51.72
2022-09-28T10:18:51.697Z,52.09
2022-09-28T10:21:21.524Z,52.17
2022-09-28T10:23:55.031Z,52.10
2022-09-28T10:26:32.390Z,52.34
2022-09-28T10:29:13.127Z,52.37
2022-09-28T10:31:48.906Z,52.34
2022-09-28T10:34:19.057Z,52.38
2022-09-28T10:36:56.135Z,52.08
2022-09-28T10:39:44.676Z,52.23
2022-09-28T10:42:21.019Z,52.05
2022-09-28T10:44:58.906Z,52.13
2022-09-28T10:47:30.619Z,52.11
2022-09-28T10:49:58.239Z,51.72
2022-09-28T10:52:29.970Z,51.49
2022-09-28T10:54:56.752Z,51.38
2022-09-28T10:57:35.524Z,51.23
2022-09-28T11:00:03.381Z,51.07
2022-09-28T11:02:38.745Z,51.10
2022-09-28T11:05:07.825Z,50.87
2022-09-28T11:07:45.488Z,50.97
2022-09-28T11:10:39.333Z,50.82
2022-09-28T11:13:09.503Z,50.83
2022-09-28T11:15:42.657Z,50.87
2022-09-28T11:18:18.701Z,50.59
2022-09-28T11:20:45.622Z,50.51
2022-09-28T11:23:23.994Z,50.45
2022-09-28T11:26:09.359Z,50.21
2022-09-28T11:28:38.114Z,50.21
2022-09-28T11:31:07.985Z,50.02
2022-09-28T11:33:45.006Z,50.07
2022-09-28T11:36:22.563Z,49.80
2022-09-28T11:39:09.089Z,49.74
2022-09-28T11:41:52.884Z,49.58
2022-09-28T11:44:37.464Z,49.51
2022-09-28T11:47:10.014Z,49.46
2022-09-28T11:49:43.849Z,49.41
2022-09-28T11:52:22.481Z,49.53
2022-09-28T11:54:55.533Z,49.33
2022-09-28T11:57:26.820Z,49.25
2022-09-28T12:00:01.918Z,49.32
2022-09-28T12:02:37.267Z,49.27
2022-09-28T12:05:20.490Z,49.33
2022-09-28T12:07:56.533Z,49.39
2022-09-28T12:10:37.019Z,49.38
2022-09-28T12:13:11.547Z,49.40
2022-09-28T12:16:23.024Z,49.26
2022-09-28T12:21:55.061Z,49.51
2022-09-28T12:24:44.140Z,49.52
2022-09-28T12:27:10.526Z,49.72
2022-09-28T12:29:42.169Z,49.71
2022-09-28T12:32:31.859Z,49.75
2022-09-28T12:34:58.689Z,49.78
2022-09-28T12:37:45.825Z,49.76
2022-09-28T12:40:37.641Z,49.85
2022-09-28T12:43:22.310Z,49.66
2022-09-28T12:46:18.255Z,49.83
2022-09-28T12:52:32.191Z,49.75
2022-09-28T12:55:23.141Z,49.71
2022-09-28T12:58:06.463Z,49.53
2022-09-28T13:00:54.711Z,49.64
2022-09-28T13:03:41.221Z,49.59
2022-09-28T13:06:25.901Z,49.52
2022-09-28T13:09:01.596Z,49.46
2022-09-28T13:11:31.989Z,49.54
2022-09-28T13:14:32.759Z,49.41
2022-09-28T13:17:41.803Z,49.35
2022-09-28T13:20:32.702Z,49.28
2022-09-28T13:23:11.602Z,49.07
2022-09-28T13:25:44.532Z,49.07
2022-09-28T13:28:15.533Z,49.10
2022-09-28T13:30:45.134Z,49.02
2022-09-28T13:33:20.391Z,49.05
2022-09-28T13:35:47.101Z,48.81
2022-09-28T13:38:16.348Z,48.79
2022-09-28T13:41:06.057Z,48.79
2022-09-28T13:44:13.398Z,48.77
2022-09-28T13:47:06.922Z,48.80
2022-09-28T13:50:03.015Z,48.82
2022-09-28T13:53:28.178Z,48.70
2022-09-28T13:56:08.622Z,48.61
2022-09-28T13:58:48.725Z,48.68
2022-09-28T14:01:21.730Z,48.48
2022-09-28T14:04:12.721Z,48.63
2022-09-28T14:06:47.489Z,48.60
2022-09-28T14:09:16.069Z,48.43
2022-09-28T14:11:56.712Z,48.49
2022-09-28T14:14:31.206Z,48.50
2022-09-28T14:17:27.130Z,48.47
2022-09-28T14:20:00.202Z,48.34
2022-09-28T14:22:53.232Z,48.40
2022-09-28T14:25:30.364Z,48.39
2022-09-28T14:28:34.484Z,48.33
2022-09-28T14:31:08.708Z,48.37
2022-09-28T14:33:35.593Z,48.14
2022-09-28T14:36:44.547Z,48.33
2022-09-28T14:39:39.761Z,48.21
2022-09-28T14:42:13.405Z,48.21
2022-09-28T14:45:07.473Z,48.21
2022-09-28T14:48:12.344Z,48.14
2022-09-28T14:50:39.335Z,48.15
2022-09-28T14:53:20.823Z,48.12
2022-09-28T14:55:50.322Z,48.08
2022-09-28T14:58:26.771Z,48.18
2022-09-28T15:01:11.833Z,48.25
2022-09-28T15:03:41.838Z,48.32
2022-09-28T15:06:16.150Z,48.33
2022-09-28T15:08:42.864Z,48.29
2022-09-28T15:11:18.123Z,48.56
2022-09-28T15:13:44.662Z,48.61
2022-09-28T15:16:14.214Z,48.64
2022-09-28T15:18:50.395Z,48.89
2022-09-28T15:21:17.545Z,48.87
2022-09-28T15:23:45.465Z,49.01
2022-09-28T15:26:28.915Z,49.03
2022-09-28T15:31:36.429Z,49.12
2022-09-28T15:34:21.972Z,49.08
2022-09-28T15:36:49.947Z,49.11
2022-09-28T15:39:22.649Z,49.23
2022-09-28T15:41:50.877Z,49.11
2022-09-28T15:44:25.273Z,49.29
2022-09-28T15:47:05.410Z,49.23
2022-09-28T15:49:46.381Z,49.14
2022-09-28T15:52:54.090Z,49.17
2022-09-28T15:55:37.410Z,49.18
2022-09-28T15:58:17.404Z,49.07
2022-09-28T16:00:56.827Z,49.20
2022-09-28T16:03:29.304Z,49.17
2022-09-28T16:05:58.466Z,49.10
2022-09-28T16:08:32.953Z,49.15
2022-09-28T16:11:12.245Z,49.13
2022-09-28T16:13:55.150Z,49.03
2022-09-28T16:16:29.865Z,48.94
2022-09-28T16:19:00.487Z,49.10
2022-09-28T16:21:47.767Z,49.01
2022-09-28T16:24:25.703Z,48.91
2022-09-28T16:27:04.000Z,49.05
2022-09-28T16:29:40.815Z,48.98
2022-09-28T16:32:25.639Z,48.91
2022-09-28T16:35:13.591Z,48.88
2022-09-28T16:37:43.335Z,48.90
2022-09-28T16:40:10.711Z,48.87
2022-09-28T16:42:38.980Z,48.83
2022-09-28T16:45:08.026Z,48.66
2022-09-28T16:47:35.005Z,48.76
2022-09-28T16:50:06.314Z,48.79
2022-09-28T16:52:54.810Z,48.73
2022-09-28T16:55:39.407Z,48.68
2022-09-28T16:58:07.011Z,48.68
2022-09-28T17:00:33.586Z,48.73
2022-09-28T17:03:00.232Z,48.66
2022-09-28T17:05:26.766Z,48.72
2022-09-28T17:08:04.063Z,48.58
2022-09-28T17:11:02.144Z,48.60
2022-09-28T17:13:31.462Z,48.52
2022-09-28T17:15:58.935Z,48.50
2022-09-28T17:18:25.772Z,48.49
2022-09-28T17:20:55.058Z,48.39
2022-09-28T17:23:21.908Z,48.35
2022-09-28T17:25:48.977Z,48.31
2022-09-28T17:28:31.719Z,48.28
2022-09-28T17:30:58.317Z,48.29
2022-09-28T17:33:25.237Z,48.36
2022-09-28T17:35:54.347Z,48.36
2022-09-28T17:38:20.833Z,48.28
2022-09-28T17:40:48.174Z,48.30
2022-09-28T17:43:14.940Z,48.46
2022-09-28T17:45:41.788Z,48.40
2022-09-28T17:48:15.823Z,48.35
2022-09-28T17:50:46.442Z,48.37
2022-09-28T17:53:13.652Z,48.38
2022-09-28T17:55:40.634Z,48.33
2022-09-28T17:58:17.830Z,48.24
2022-09-28T18:00:46.226Z,48.33
2022-09-28T18:03:23.482Z,48.32
2022-09-28T18:05:58.240Z,48.19
2022-09-28T18:08:24.762Z,48.24
2022-09-28T18:10:51.266Z,48.11
2022-09-28T18:13:22.686Z,48.19
2022-09-28T18:15:53.338Z,48.08
2022-09-28T18:18:20.432Z,48.26
2022-09-28T18:20:46.954Z,48.13
2022-09-28T18:23:13.822Z,48.13
2022-09-28T18:25:44.722Z,48.00
2022-09-28T18:28:12.673Z,48.03
2022-09-28T18:33:21.071Z,47.90
2022-09-28T18:35:54.619Z,47.97
2022-09-28T18:38:21.622Z,47.84
2022-09-28T18:40:48.380Z,47.92
2022-09-28T18:43:16.370Z,47.90
2022-09-28T18:45:42.936Z,47.86
2022-09-28T18:48:09.548Z,47.99
2022-09-28T18:50:36.115Z,47.84
2022-09-28T18:53:11.938Z,47.82
2022-09-28T18:55:42.460Z,47.83
2022-09-28T18:58:09.743Z,47.86
2022-09-28T19:03:23.087Z,47.80
2022-09-28T19:05:49.803Z,47.70
2022-09-28T19:08:16.491Z,47.71
2022-09-28T19:10:44.546Z,47.68
2022-09-28T19:13:10.998Z,47.65
2022-09-28T19:15:37.572Z,47.69
2022-09-28T19:18:04.699Z,47.51
2022-09-28T19:20:33.123Z,47.81
2022-09-28T19:22:59.735Z,47.58
2022-09-28T19:25:34.070Z,47.58
2022-09-28T19:28:00.805Z,47.57
2022-09-28T19:30:27.483Z,47.48
2022-09-28T19:35:34.440Z,47.54
2022-09-28T19:38:00.932Z,47.37
2022-09-28T19:40:27.543Z,47.38
2022-09-28T19:42:54.160Z,47.47
2022-09-28T19:45:20.706Z,47.39
2022-09-28T19:47:49.050Z,47.37
2022-09-28T19:50:15.749Z,47.44
2022-09-28T19:52:42.316Z,47.25
2022-09-28T19:55:08.960Z,47.27
2022-09-28T20:00:21.157Z,47.17
2022-09-28T20:02:47.692Z,47.26
2022-09-28T20:05:14.753Z,47.17
2022-09-28T20:07:41.230Z,47.29
2022-09-28T20:10:08.006Z,47.11
2022-09-28T20:12:34.614Z,47.11
2022-09-28T20:15:01.150Z,47.11
2022-09-28T20:17:27.724Z,47.11
2022-09-28T20:19:54.231Z,47.00
2022-09-28T20:22:21.346Z,46.85
2022-09-28T20:24:47.908Z,46.83
2022-09-28T20:27:14.586Z,46.74
2022-09-28T20:29:42.977Z,46.78
2022-09-28T20:32:09.461Z,46.80
2022-09-28T20:34:35.934Z,46.75
2022-09-28T20:37:02.485Z,46.74
2022-09-28T20:39:29.261Z,46.71
2022-09-28T20:41:57.630Z,46.72
2022-09-28T20:44:24.196Z,46.64
2022-09-28T20:46:51.415Z,46.73
2022-09-28T20:49:17.914Z,46.72
2022-09-28T20:51:44.777Z,46.65
2022-09-28T20:54:11.757Z,46.64
2022-09-28T20:56:38.905Z,46.56
2022-09-28T20:59:11.284Z,46.53
2022-09-28T21:01:38.515Z,46.47
2022-09-28T21:04:07.284Z,46.46
2022-09-28T21:06:36.797Z,46.62
2022-09-28T21:09:04.787Z,46.41
2022-09-28T21:11:32.091Z,46.37
2022-09-28T21:14:01.855Z,46.42
2022-09-28T21:16:30.577Z,46.42
2022-09-28T21:18:57.521Z,46.41
2022-09-28T21:21:25.383Z,46.36
2022-09-28T21:23:53.087Z,46.32
2022-09-28T21:26:27.169Z,46.34
2022-09-28T21:28:58.220Z,46.38
2022-09-28T21:31:29.157Z,46.30
2022-09-28T21:33:56.825Z,46.20
2022-09-28T21:36:23.410Z,46.20
2022-09-28T21:38:50.215Z,46.46
2022-09-28T21:41:17.222Z,46.21
2022-09-28T21:43:43.781Z,46.27
2022-09-28T21:46:10.851Z,46.15
2022-09-28T21:48:37.349Z,46.21
2022-09-28T21:51:06.579Z,46.19
2022-09-28T21:53:35.681Z,46.20
2022-09-28T21:56:04.623Z,46.10
2022-09-28T21:58:33.536Z,45.96
2022-09-28T22:01:13.190Z,46.06
2022-09-28T22:03:40.273Z,46.01
2022-09-28T22:06:07.509Z,45.94
2022-09-28T22:08:35.258Z,46.06
2022-09-28T22:11:05.626Z,46.02
2022-09-28T22:13:35.017Z,45.98
2022-09-28T22:16:02.082Z,46.07
2022-09-28T22:18:30.253Z,45.91
2022-09-28T22:21:02.836Z,45.87
2022-09-28T22:23:30.231Z,46.02
2022-09-28T22:26:07.735Z,45.95
2022-09-28T22:28:34.887Z,46.04
2022-09-28T22:31:01.684Z,45.96
2022-09-28T22:33:28.416Z,45.92
2022-09-28T22:35:55.484Z,45.86
2022-09-28T22:38:24.153Z,45.77
2022-09-28T22:40:52.643Z,45.73
2022-09-28T22:43:19.200Z,45.79
2022-09-28T22:45:45.939Z,45.68
2022-09-28T22:48:13.178Z,45.76
2022-09-28T22:50:47.158Z,45.84
2022-09-28T22:53:14.103Z,45.73
2022-09-28T22:55:41.729Z,45.72
2022-09-28T22:58:08.189Z,45.65
2022-09-28T23:00:34.650Z,45.74
2022-09-28T23:03:01.227Z,45.76
2022-09-28T23:05:27.766Z,45.70
2022-09-28T23:07:54.215Z,45.63
2022-09-28T23:10:20.723Z,45.69
2022-09-28T23:12:47.156Z,45.64
2022-09-28T23:15:13.750Z,45.63
2022-09-28T23:21:28.317Z,45.76
2022-09-28T23:24:01.567Z,45.71
2022-09-28T23:26:31.639Z,45.72
2022-09-28T23:28:59.566Z,45.85
2022-09-28T23:31:31.602Z,45.86
2022-09-28T23:34:02.284Z,45.89
2022-09-28T23:36:29.713Z,45.75
2022-09-28T23:38:56.472Z,45.85
2022-09-28T23:41:22.940Z,45.88
2022-09-28T23:43:49.457Z,45.86
2022-09-28T23:46:20.466Z,45.78
2022-09-28T23:48:47.652Z,45.88
2022-09-28T23:51:14.211Z,45.76
2022-09-28T23:53:40.766Z,45.87
